Flight Track Log - Related Links

Times and Time Zones

All times are in EDT time to prevent confusion due to time zone crossing. See the CPZ5750 flight status page for this flight to view local times or setup timezone preferences in your user account.

Time Position Orientation Groundspeed Altitude Reporting Facility
EDT Latitude Longitude Course Direction KTS MPH feet Rate Location/Type
Tue 04:32:15 PM 44.9333 -93.2500 70° East 190 219 2,800  Level Minneapolis TRACON
Tue 04:33:09 PM 44.9833 -93.2333 13° North 244 281 5,000 2,553 Climbing Minneapolis TRACON
Tue 04:34:00 PM 45.0366 -92.6303 68° East  Level FlightAware Approximate
Tue 04:34:36 PM 45.0300 -93.1083 62° Northeast 271 312 8,800  Level Minneapolis Center
Tue 04:35:00 PM 45.0787 -92.4831 68° East  Level FlightAware Approximate
Tue 04:35:38 PM 45.0586 -93.0036 69° East 285 328 11,600  Level Minneapolis Center
Tue 04:36:00 PM 45.1127 -92.3326 70° East  Level FlightAware Approximate
Tue 04:36:40 PM 45.0992 -92.8975 62° Northeast 305 351 13,200  Level Minneapolis Center
Tue 04:37:00 PM 45.1504 -92.1820 70° East  Level FlightAware Approximate
Tue 04:37:42 PM 45.1408 -92.7725 65° Northeast 347 399 15,300  Level Minneapolis Center
Tue 04:38:44 PM 45.1922 -92.6189 65° Northeast 361 415 17,700 2,160 Climbing Minneapolis Center
Tue 04:39:47 PM 45.2367 -92.4869 64° Northeast 370 426 19,800 1,824 Climbing Minneapolis Center
Tue 04:40:49 PM 45.2811 -92.3519 65° Northeast 375 432 21,500 1,597 Climbing Minneapolis Center
Tue 04:41:51 PM 45.3139 -92.2028 73° East 398 458 23,100 1,500 Climbing Minneapolis Center
Tue 04:42:53 PM 45.3356 -92.0478 79° East 402 463 24,600 1,355 Climbing Minneapolis Center
Tue 04:43:55 PM 45.3572 -91.8883 79° East 406 467 25,900 1,355 Climbing Minneapolis Center
Tue 04:44:57 PM 45.3842 -91.6939 79° East 413 475 27,400 1,161 Climbing Minneapolis Center
Tue 04:45:59 PM 45.4064 -91.5267 79° East 421 484 28,300 774 Climbing Minneapolis Center
Tue 04:47:01 PM 45.4286 -91.3578 79° East 431 496 29,000 726 Climbing Minneapolis Center
Tue 04:48:03 PM 45.4508 -91.1817 80° East 446 513 29,800 1,016 Climbing Minneapolis Center
Tue 04:49:05 PM 45.4694 -91.0061 81° East 449 517 31,100 1,161 Climbing Minneapolis Center
Tue 04:50:07 PM 45.4556 -90.8347 97° East 438 504 32,200 1,065 Climbing Minneapolis Center
Tue 04:51:09 PM 45.4378 -90.6289 97° East 437 503 33,300 968 Climbing Minneapolis Center
Tue 04:52:11 PM 45.4217 -90.4581 98° East 437 503 34,200 823 Climbing Minneapolis Center
Tue 04:53:13 PM 45.4044 -90.2914 98° East 430 495 35,000 387 Climbing Minneapolis Center
Tue 04:54:15 PM 45.3897 -90.1236 97° East 430 495 35,000  Level Minneapolis Center
Tue 04:55:17 PM 45.3728 -89.9578 98° East 427 491 35,000  Level Minneapolis Center
Tue 04:56:20 PM 45.3522 -89.7589 98° East 426 490 35,000  Level Minneapolis Center
Tue 04:57:22 PM 45.3358 -89.5933 98° East 425 489 35,000  Level Minneapolis Center
Tue 04:58:24 PM 45.3183 -89.4261 98° East 429 494 35,000  Level Minneapolis Center
Tue 04:59:26 PM 45.3008 -89.2608 99° East 427 491 35,000  Level Minneapolis Center
Tue 05:00:28 PM 45.2839 -89.0967 98° East 425 489 35,000  Level Minneapolis Center
Tue 05:01:30 PM 45.2608 -88.8981 99° East 427 491 35,000  Level Minneapolis Center
Tue 05:02:32 PM 45.2433 -88.7308 98° East 431 496 35,000  Level Minneapolis Center
Tue 05:03:34 PM 45.2275 -88.5783 98° East 432 497 35,000  Level Minneapolis Center
Tue 05:04:36 PM 45.2083 -88.4122 99° East 428 493 35,000  Level Minneapolis Center
Tue 05:05:38 PM 45.1853 -88.2128 99° East 429 494 35,000  Level Minneapolis Center
Tue 05:06:40 PM 45.1664 -88.0472 99° East 428 493 35,000  Level Minneapolis Center
Tue 05:07:42 PM 45.1461 -87.8831 100° East 426 490 35,000  Level Minneapolis Center
Tue 05:08:44 PM 45.1261 -87.7161 100° East 429 494 35,000  Level Minneapolis Center
Tue 05:09:46 PM 45.1067 -87.5483 99° East 432 497 35,000  Level Minneapolis Center
Tue 05:10:48 PM 45.0808 -87.3469 100° East 435 501 35,000  Level Minneapolis Center
Tue 05:11:51 PM 45.0600 -87.1761 100° East 441 507 35,000  Level Minneapolis Center
Tue 05:12:53 PM 45.0375 -87.0042 100° East 443 510 35,000  Level Minneapolis Center
Tue 05:13:55 PM 45.0158 -86.8306 100° East 448 516 35,000  Level Minneapolis Center
Tue 05:14:57 PM 44.9931 -86.6481 100° East 453 521 35,000  Level Minneapolis Center
Tue 05:15:59 PM 44.9697 -86.4769 101° East 450 518 35,000  Level Minneapolis Center
Tue 05:17:01 PM 44.9469 -86.3075 101° East 443 510 35,000  Level Minneapolis Center
Tue 05:18:03 PM 44.9239 -86.1369 101° East 442 509 35,000  Level Minneapolis Center
Tue 05:19:05 PM 44.8969 -85.9319 100° East 443 510 35,000  Level Minneapolis Center
Tue 05:20:07 PM 44.8731 -85.7622 101° East 443 510 35,000  Level Minneapolis Center
Tue 05:21:09 PM 44.8494 -85.5853 101° East 443 510 35,000  Level Minneapolis Center
Tue 05:22:11 PM 44.8250 -85.4139 101° East 446 513 35,000  Level Minneapolis Center
Tue 05:23:13 PM 44.8003 -85.2439 102° East 445 512 35,000  Level Minneapolis Center
Tue 05:24:15 PM 44.7758 -85.0731 101° East 445 512 35,000  Level Minneapolis Center
Tue 05:25:17 PM 44.7514 -84.9025 101° East 445 512 35,000  Level Minneapolis Center
Tue 05:26:20 PM 44.7214 -84.6953 101° East 451 519 35,000  Level Minneapolis Center
Tue 05:27:22 PM 44.6961 -84.5239 102° East 450 518 35,000  Level Minneapolis Center
Tue 05:28:24 PM 44.6711 -84.3525 102° East 449 517 35,000  Level Minneapolis Center
Tue 05:29:26 PM 44.6436 -84.1800 103° East 452 520 35,000  Level Minneapolis Center
Tue 05:30:28 PM 44.6178 -84.0078 102° East 453 521 35,000  Level Minneapolis Center
Tue 05:31:30 PM 44.5900 -83.8364 103° East 452 520 35,000  Level Minneapolis Center
Tue 05:32:32 PM 44.5589 -83.6294 102° East 453 521 35,000  Level Minneapolis Center
Tue 05:33:34 PM 44.5311 -83.4567 103° East 456 525 35,000  Level Minneapolis Center
Tue 05:34:36 PM 44.5022 -83.2831 103° East 458 527 35,000  Level Minneapolis Center
Tue 05:35:38 PM 44.4753 -83.1081 102° East 459 528 35,000  Level Minneapolis Center
Tue 05:36:40 PM 44.4458 -82.9342 103° East 459 528 35,000  Level Minneapolis Center
Tue 05:37:42 PM 44.4114 -82.7250 103° East 461 531 35,000  Level Minneapolis Center
Tue 05:38:45 PM 44.3842 -82.5489 102° East 462 532 35,000  Level Minneapolis Center
Tue 05:39:47 PM 44.3519 -82.3753 104° East 464 534 35,000  Level Minneapolis Center
Tue 05:40:57 PM 44.2833 -82.1500 113° Southeast 460 529 35,000  Level Toronto Center
Tue 05:41:57 PM 44.2500 -81.9833 106° East 460 529 35,000  Level Toronto Center
Tue 05:42:57 PM 44.2167 -81.8167 106° East 460 529 35,000  Level Toronto Center
Tue 05:43:57 PM 44.1667 -81.6500 113° Southeast 460 529 35,000  Level Toronto Center
Tue 05:44:57 PM 44.1333 -81.4833 106° East 460 529 35,000  Level Toronto Center
Tue 05:45:57 PM 44.0833 -81.3000 111° Southeast 460 529 35,000  Level Toronto Center
Tue 05:46:57 PM 44.0333 -81.1333 113° Southeast 460 529 35,000  Level Toronto Center
Tue 05:47:57 PM 44.0000 -80.9833 107° East 460 529 35,000  Level Toronto Center
Tue 05:48:57 PM 43.9667 -80.8167 105° East 460 529 35,000  Level Toronto Center
Tue 05:49:57 PM 43.9167 -80.6333 111° Southeast 460 529 35,000  Level Toronto Center
Tue 05:50:57 PM 43.8833 -80.4667 105° East 460 529 35,000  Level Toronto Center
Tue 05:51:57 PM 43.8333 -80.3000 113° Southeast 460 529 35,000  Level Toronto Center
Tue 05:52:57 PM 43.7833 -80.1333 113° Southeast 460 529 35,000  Level Toronto Center
Tue 05:53:57 PM 43.7500 -79.9833 107° East 460 529 35,000  Level Toronto Center
Tue 05:54:57 PM 43.7000 -79.8000 111° Southeast 460 529 35,000  Level Toronto Center
Tue 05:55:57 PM 43.6500 -79.6333 112° Southeast 480 552 35,000  Level Toronto Center
Tue 05:56:57 PM 43.6333 -79.4500 97° East 500 575 35,000  Level Toronto Center
Tue 05:57:57 PM 43.6000 -79.2667 104° East 480 552 35,000  Level Toronto Center
Tue 05:58:57 PM 43.5833 -79.0833 97° East 490 564 35,000  Level Toronto Center
Tue 05:59:57 PM 43.5500 -78.9000 104° East 480 552 35,000  Level Toronto Center
Tue 06:00:57 PM 43.5333 -78.7167 97° East 480 552 35,000  Level Toronto Center
Tue 06:01:57 PM 43.5167 -78.5500 98° East 480 552 35,000  Level Toronto Center
Tue 06:02:57 PM 43.4667 -78.3500 109° East 480 552 35,000  Level Toronto Center
Tue 06:03:57 PM 43.4500 -78.1833 98° East 480 552 35,000  Level Toronto Center
Tue 06:05:07 PM 43.4336 -77.9875 97° East 485 558 35,000 -323 Level Cleveland Center
Tue 06:06:07 PM 43.4064 -77.8056 102° East 485 558 34,300 -700 Descending Cleveland Center
Tue 06:07:07 PM 43.3811 -77.6297 101° East 485 558 33,600 -800 Descending Cleveland Center
Tue 06:08:07 PM 43.3536 -77.4483 102° East 485 558 32,700 -1,094 Descending Cleveland Center
Tue 06:09:57 PM 43.3000 -77.0833 101° East 470 541 30,500 -1,200 Descending Toronto Center
Tue 06:10:57 PM 43.2667 -76.9333 107° East 460 529 29,300 -750 Descending Toronto Center
Tue 06:11:57 PM 43.2500 -76.7500 97° East 460 529 29,000 -151 Descending Toronto Center
Tue 06:12:56 PM 43.2167 -76.5833 105° East 460 529 29,000  Level Toronto Center
Tue 06:13:57 PM 43.1833 -76.4167 105° East 450 518 29,000  Level Toronto Center
Tue 06:14:32 PM 43.1858 -76.3503 87° East 456 525 29,000 -632 Level Boston Center
Tue 06:15:32 PM 43.1600 -76.1836 102° East 456 525 28,000 -1,250 Descending Boston Center
Tue 06:16:32 PM 43.1339 -76.0253 103° East 446 513 26,500 -1,500 Descending Boston Center
Tue 06:17:32 PM 43.1094 -75.8703 102° East 434 499 25,000 -1,550 Descending Boston Center
Tue 06:18:32 PM 43.0831 -75.7094 103° East 429 494 23,400 -1,550 Descending Boston Center
Tue 06:19:32 PM 43.0558 -75.5575 104° East 424 488 21,900 -1,500 Descending Boston Center
Tue 06:20:32 PM 43.0289 -75.4028 103° East 417 480 20,400 -1,450 Descending Boston Center
Tue 06:21:32 PM 43.0053 -75.2594 103° East 407 468 19,000 -1,250 Descending Boston Center
Tue 06:22:32 PM 42.9872 -75.1481 102° East 395 455 17,900 -1,400 Descending Boston Center
Tue 06:23:32 PM 42.9550 -75.0103 108° East 385 443 16,200 -1,900 Descending Boston Center
Tue 06:24:32 PM 42.8892 -74.8717 123° Southeast 365 420 14,100 -1,700 Descending Boston Center
Tue 06:25:32 PM 42.8714 -74.7319 100° East 366 421 12,800 -1,150 Descending Boston Center
Tue 06:26:32 PM 42.8528 -74.6094 102° East 366 421 11,800 -1,100 Descending Boston Center
Tue 06:27:32 PM 42.8367 -74.4617 98° East 366 421 10,600 -1,000 Descending Boston Center
Tue 06:28:32 PM 42.8344 -74.3483 91° East 345 397 9,800 -1,300 Descending Boston Center
Tue 06:29:32 PM 42.8325 -74.2181 91° East 311 358 8,000 -2,061 Descending Boston Center
Tue 06:30:43 PM 42.8303 -74.0906 91° East 296 341 5,300 -2,200 Descending Boston Center
Tue 06:31:32 PM 42.8294 -74.0086 91° East 294 338 3,600 -1,431 Descending Boston Center
Tue 06:32:32 PM 42.8267 -73.8925 92° East 286 329 2,700 -857 Descending Boston Center
Tue 06:33:38 PM 42.8400 -73.8333 73° East 159 183 1,800 -818 Descending Boston Center

Login

Don't have an account? Register now (free) for customized features, flight alerts, and more!